Time;durP1;ratioP1;P1;durP2;ratioP2;P2;SDS_P1;SDS_P2;PMS_P1;PMS_P2;Temp;Humidity;BMP_temperature;BMP_pressure;BME280_temperature;BME280_humidity;BME280_pressure;Samples;Min_cycle;Max_cycle;Signal;HPM_P1;HPM_P2
2023/08/22 00:02:28;;;;;;;2.30;0.95;;;18.40;99.90;;;;;;5079407;28;20051;-73
2023/08/22 00:04:54;;;;;;;2.70;0.80;;;18.40;99.90;;;;;;5058249;28;20043;-73
2023/08/22 00:07:19;;;;;;;8.30;1.17;;;18.40;99.90;;;;;;5082067;28;20032;-72
2023/08/22 00:09:45;;;;;;;5.85;1.70;;;18.30;99.90;;;;;;5080247;28;20063;-72
2023/08/22 00:12:10;;;;;;;6.47;1.08;;;18.30;99.90;;;;;;5081864;28;20064;-74
2023/08/22 00:14:36;;;;;;;3.80;1.05;;;18.20;99.90;;;;;;5062845;28;20472;-74
2023/08/22 00:17:02;;;;;;;3.75;0.90;;;18.20;99.90;;;;;;5080377;28;20052;-73
2023/08/22 00:19:28;;;;;;;2.25;0.90;;;18.20;99.90;;;;;;5063842;28;20028;-73
2023/08/22 00:21:53;;;;;;;4.22;0.88;;;18.20;99.90;;;;;;5079479;28;20373;-75
2023/08/22 00:24:19;;;;;;;2.40;0.80;;;18.20;99.90;;;;;;5081855;28;20051;-75
2023/08/22 00:26:44;;;;;;;3.55;0.93;;;18.20;99.90;;;;;;5061911;28;20036;-74
2023/08/22 00:29:10;;;;;;;3.35;1.00;;;18.20;99.90;;;;;;5081579;28;20388;-74
2023/08/22 00:31:35;;;;;;;4.10;1.02;;;18.20;99.90;;;;;;5062323;28;20055;-73
2023/08/22 00:34:02;;;;;;;4.20;1.02;;;18.20;99.90;;;;;;5080267;28;20025;-73
2023/08/22 00:36:28;;;;;;;6.85;1.83;;;18.20;99.90;;;;;;5080999;28;20492;-73
2023/08/22 00:38:54;;;;;;;4.28;1.13;;;18.20;99.90;;;;;;5079071;28;20063;-72
2023/08/22 00:41:19;;;;;;;6.35;1.33;;;18.10;99.90;;;;;;5074166;28;20755;-75
2023/08/22 00:43:46;;;;;;;3.47;1.08;;;18.10;99.90;;;;;;5083751;28;20566;-73
2023/08/22 00:46:12;;;;;;;3.60;1.48;;;18.10;99.90;;;;;;5081563;28;20031;-73
2023/08/22 00:48:38;;;;;;;3.88;1.30;;;18.00;99.90;;;;;;5059172;28;20033;-75
2023/08/22 00:51:04;;;;;;;5.68;1.40;;;18.00;99.90;;;;;;5081195;28;20077;-72
2023/08/22 00:53:32;;;;;;;4.32;1.30;;;17.90;99.90;;;;;;5078590;28;20028;-72
2023/08/22 00:55:57;;;;;;;4.85;1.45;;;17.90;99.90;;;;;;5081826;28;20024;-73
2023/08/22 00:58:23;;;;;;;2.67;1.30;;;17.90;99.90;;;;;;5077843;28;20094;-74
2023/08/22 01:00:48;;;;;;;5.88;1.63;;;17.80;99.90;;;;;;5074723;28;20024;-73
2023/08/22 01:03:14;;;;;;;7.03;1.40;;;17.80;99.90;;;;;;5081902;28;20399;-73
2023/08/22 01:05:48;;;;;;;4.50;1.73;;;17.80;99.90;;;;;;5079076;28;20028;-73
2023/08/22 01:08:20;;;;;;;5.40;1.85;;;17.80;99.90;;;;;;5077848;28;20036;-74
2023/08/22 01:10:52;;;;;;;4.03;1.67;;;17.70;99.90;;;;;;5081282;28;20120;-71
2023/08/22 01:13:22;;;;;;;5.55;1.88;;;17.70;99.90;;;;;;5056239;28;20025;-73
2023/08/22 01:15:50;;;;;;;3.75;1.85;;;17.70;99.90;;;;;;5059915;28;20451;-72
2023/08/22 01:18:18;;;;;;;6.97;2.42;;;17.70;99.90;;;;;;5078069;28;20345;-74
2023/08/22 01:20:44;;;;;;;9.70;2.25;;;17.60;99.90;;;;;;5081077;28;20034;-74
2023/08/22 01:23:10;;;;;;;6.47;2.50;;;17.60;99.90;;;;;;5060408;28;20112;-73
2023/08/22 01:25:37;;;;;;;5.18;2.08;;;17.60;99.90;;;;;;5079128;28;20361;-73
2023/08/22 01:28:05;;;;;;;6.38;2.38;;;17.50;99.90;;;;;;5079964;28;20020;-72
2023/08/22 01:30:46;;;;;;;5.07;2.20;;;17.50;99.90;;;;;;5079528;28;20432;-73
2023/08/22 01:33:24;;;;;;;4.32;2.05;;;17.50;99.90;;;;;;5080870;28;20040;-73
2023/08/22 01:35:53;;;;;;;6.95;2.63;;;17.50;99.90;;;;;;5074385;28;20039;-73
2023/08/22 01:38:20;;;;;;;6.63;2.60;;;17.50;99.90;;;;;;5073338;28;20025;-77
2023/08/22 01:40:47;;;;;;;4.22;2.05;;;17.50;99.90;;;;;;5073861;28;20079;-73
2023/08/22 01:43:13;;;;;;;5.55;1.92;;;17.40;99.90;;;;;;5081315;28;20036;-72
2023/08/22 01:45:39;;;;;;;12.20;2.25;;;17.40;99.90;;;;;;5077825;28;20040;-72
2023/08/22 01:48:05;;;;;;;3.67;1.80;;;17.40;99.90;;;;;;5071484;28;20081;-74
2023/08/22 01:50:31;;;;;;;5.95;2.20;;;17.40;99.90;;;;;;5077414;28;20039;-74
2023/08/22 01:52:57;;;;;;;6.53;2.17;;;17.30;99.90;;;;;;5080118;28;20494;-74
2023/08/22 01:55:23;;;;;;;3.88;1.80;;;17.30;99.90;;;;;;5079792;28;20029;-74
2023/08/22 01:57:49;;;;;;;3.70;1.58;;;17.30;99.90;;;;;;5085112;28;20056;-74
2023/08/22 02:00:15;;;;;;;4.65;2.03;;;17.30;99.90;;;;;;5077718;28;20051;-73
2023/08/22 02:02:41;;;;;;;4.45;2.05;;;17.30;99.90;;;;;;5079657;28;20475;-73
2023/08/22 02:05:07;;;;;;;4.30;1.60;;;17.30;99.90;;;;;;5078612;28;20032;-73
2023/08/22 02:07:34;;;;;;;7.45;2.05;;;17.20;99.90;;;;;;5078201;28;20047;-74
2023/08/22 02:09:59;;;;;;;6.30;1.90;;;17.20;99.90;;;;;;5077803;28;20043;-72
2023/08/22 02:12:25;;;;;;;5.10;2.13;;;17.20;99.90;;;;;;5079317;28;20638;-74
2023/08/22 02:14:54;;;;;;;8.02;1.80;;;17.20;99.90;;;;;;5077567;28;20090;-73
2023/08/22 02:17:20;;;;;;;7.50;2.28;;;17.20;99.90;;;;;;5079947;28;20554;-74
2023/08/22 02:19:46;;;;;;;7.28;3.42;;;17.10;99.90;;;;;;5077144;28;20025;-72
2023/08/22 02:22:11;;;;;;;7.75;2.35;;;17.10;99.90;;;;;;5077494;28;20032;-74
2023/08/22 02:24:37;;;;;;;4.88;2.25;;;17.10;99.90;;;;;;5079047;28;20024;-74
2023/08/22 02:27:05;;;;;;;7.93;2.13;;;17.10;99.90;;;;;;5078334;28;20031;-73
2023/08/22 02:29:32;;;;;;;9.27;2.60;;;17.10;99.90;;;;;;5077843;28;20043;-74
2023/08/22 02:31:57;;;;;;;6.13;2.30;;;17.00;99.90;;;;;;5079345;28;20020;-73
2023/08/22 02:34:25;;;;;;;5.25;2.40;;;17.00;99.90;;;;;;5076881;28;20739;-74
2023/08/22 02:36:50;;;;;;;7.53;2.60;;;17.00;99.90;;;;;;5080454;28;20145;-73
2023/08/22 02:39:16;;;;;;;6.72;2.90;;;16.90;99.90;;;;;;5075802;28;20024;-73
2023/08/22 02:41:41;;;;;;;7.18;2.75;;;16.90;99.90;;;;;;5082053;28;20035;-73
2023/08/22 02:44:07;;;;;;;10.15;2.95;;;16.90;99.90;;;;;;5079985;28;20036;-74
2023/08/22 02:46:33;;;;;;;6.00;3.60;;;16.90;99.90;;;;;;5077338;28;20572;-73
2023/08/22 02:48:58;;;;;;;7.43;3.45;;;16.90;99.90;;;;;;5060377;28;20043;-73
2023/08/22 02:51:24;;;;;;;6.65;3.15;;;16.80;99.90;;;;;;5057506;28;20025;-73
2023/08/22 02:53:49;;;;;;;6.43;3.45;;;16.80;99.90;;;;;;5080028;28;20047;-74
2023/08/22 02:56:15;;;;;;;7.07;3.75;;;16.80;99.90;;;;;;5080621;28;20037;-74
2023/08/22 02:58:41;;;;;;;9.68;3.83;;;16.80;99.90;;;;;;5075212;28;20028;-74
2023/08/22 03:01:07;;;;;;;11.73;4.03;;;16.70;99.90;;;;;;5080016;28;20036;-73
2023/08/22 03:03:33;;;;;;;10.35;3.92;;;16.80;99.90;;;;;;5058963;28;20028;-74
2023/08/22 03:06:00;;;;;;;12.48;3.75;;;16.70;99.90;;;;;;5078584;28;20484;-73
2023/08/22 03:08:26;;;;;;;6.20;3.45;;;16.70;99.90;;;;;;5061065;28;20398;-75
2023/08/22 03:10:51;;;;;;;7.43;4.00;;;16.70;99.90;;;;;;5106514;22;20035;-70
2023/08/22 03:13:17;;;;;;;8.13;4.00;;;16.70;99.90;;;;;;5000778;28;20059;-70
2023/08/22 03:15:44;;;;;;;6.85;3.30;;;16.70;99.90;;;;;;4941159;28;20036;-70
2023/08/22 03:18:10;;;;;;;7.68;3.88;;;16.70;99.90;;;;;;4935349;28;20475;-71
2023/08/22 03:20:36;;;;;;;9.82;4.03;;;16.70;99.90;;;;;;4929091;28;20060;-69
2023/08/22 03:23:02;;;;;;;10.15;3.70;;;16.60;99.90;;;;;;4928941;28;20036;-71
2023/08/22 03:25:28;;;;;;;8.43;3.67;;;16.60;99.90;;;;;;4926625;28;20032;-71
2023/08/22 03:27:54;;;;;;;9.55;4.35;;;16.60;99.90;;;;;;4927983;28;20517;-71
2023/08/22 03:30:19;;;;;;;7.57;3.90;;;16.60;99.90;;;;;;4928122;28;20044;-71
2023/08/22 03:32:45;;;;;;;7.60;3.70;;;16.60;99.90;;;;;;4931078;28;20043;-71
2023/08/22 03:35:10;;;;;;;10.43;4.25;;;16.60;99.90;;;;;;4930902;28;20055;-71
2023/08/22 03:37:36;;;;;;;10.75;3.95;;;16.60;99.90;;;;;;4931424;28;20047;-71
2023/08/22 03:40:02;;;;;;;9.18;4.38;;;16.50;99.90;;;;;;4929066;28;20099;-71
2023/08/22 03:42:28;;;;;;;8.43;3.80;;;16.50;99.90;;;;;;4932150;28;20035;-71
2023/08/22 03:44:53;;;;;;;14.27;4.93;;;16.50;99.90;;;;;;4931272;28;20048;-71
2023/08/22 03:47:19;;;;;;;12.48;5.13;;;16.50;99.90;;;;;;4930612;28;20051;-70
2023/08/22 03:49:44;;;;;;;11.57;4.10;;;16.50;99.90;;;;;;4931715;28;20130;-71
2023/08/22 03:52:10;;;;;;;9.85;4.50;;;16.50;99.90;;;;;;4932551;28;20050;-71
2023/08/22 03:54:35;;;;;;;10.95;4.75;;;16.50;99.90;;;;;;4931744;28;20406;-70
2023/08/22 03:57:01;;;;;;;12.60;5.25;;;16.50;99.90;;;;;;4924587;28;20033;-69
2023/08/22 03:59:27;;;;;;;9.20;4.18;;;16.50;99.90;;;;;;4927502;28;20052;-71
2023/08/22 04:01:53;;;;;;;10.18;4.10;;;16.50;99.90;;;;;;4932523;28;20032;-71
2023/08/22 04:04:18;;;;;;;8.18;4.45;;;16.50;99.90;;;;;;4932273;28;20654;-70
2023/08/22 04:06:44;;;;;;;9.75;4.57;;;16.50;99.90;;;;;;4929956;28;20043;-71
2023/08/22 04:09:09;;;;;;;10.13;4.05;;;16.50;99.90;;;;;;4927321;28;20063;-72
2023/08/22 04:11:37;;;;;;;9.93;4.80;;;16.50;99.90;;;;;;4931187;28;20032;-70
2023/08/22 04:14:02;;;;;;;7.88;4.07;;;16.50;99.90;;;;;;4943645;28;20560;-69
2023/08/22 04:16:28;;;;;;;8.18;4.20;;;16.50;99.90;;;;;;4946893;28;20039;-70
2023/08/22 04:18:53;;;;;;;8.23;4.82;;;16.40;99.90;;;;;;4932363;28;20028;-70
2023/08/22 04:21:19;;;;;;;11.77;6.38;;;16.40;99.90;;;;;;4930542;28;20430;-69
2023/08/22 04:23:45;;;;;;;8.80;4.43;;;16.40;99.90;;;;;;4931326;28;20031;-70
2023/08/22 04:26:10;;;;;;;16.33;5.40;;;16.40;99.90;;;;;;4931913;28;20082;-70
2023/08/22 04:28:36;;;;;;;11.65;5.07;;;16.40;99.90;;;;;;4929990;28;20044;-70
2023/08/22 04:31:02;;;;;;;8.70;4.80;;;16.40;99.90;;;;;;4931938;28;20594;-71
2023/08/22 04:33:28;;;;;;;8.82;4.45;;;16.40;99.90;;;;;;4930632;28;20082;-71
2023/08/22 04:35:53;;;;;;;9.82;4.55;;;16.50;99.90;;;;;;4931623;28;20551;-70
2023/08/22 04:38:19;;;;;;;9.93;4.43;;;16.50;99.90;;;;;;4930915;28;20062;-71
2023/08/22 04:40:45;;;;;;;10.00;3.95;;;16.50;99.90;;;;;;4930145;28;20023;-70
2023/08/22 04:43:11;;;;;;;11.73;5.57;;;16.50;99.90;;;;;;4930103;28;20450;-72
2023/08/22 04:45:37;;;;;;;13.15;5.13;;;16.50;99.90;;;;;;4929435;28;20036;-69
2023/08/22 04:48:03;;;;;;;14.75;4.70;;;16.40;99.90;;;;;;4931043;28;20070;-72
2023/08/22 04:50:31;;;;;;;10.60;5.13;;;16.40;99.90;;;;;;4929779;28;20487;-70
2023/08/22 04:52:57;;;;;;;9.55;4.15;;;16.40;99.90;;;;;;4931152;28;20445;-71
2023/08/22 04:55:23;;;;;;;7.78;4.10;;;16.40;99.90;;;;;;4925926;28;20563;-70
2023/08/22 04:57:49;;;;;;;15.68;4.95;;;16.40;99.90;;;;;;4923161;28;20060;-70
2023/08/22 05:00:16;;;;;;;8.50;4.47;;;16.40;99.90;;;;;;4928668;28;20078;-71
2023/08/22 05:02:42;;;;;;;7.85;4.05;;;16.40;99.90;;;;;;4927650;28;20062;-71
2023/08/22 05:05:09;;;;;;;9.07;4.00;;;16.40;99.90;;;;;;4930036;28;20040;-71
2023/08/22 05:07:35;;;;;;;7.63;3.90;;;16.40;99.90;;;;;;4918938;28;20039;-71
2023/08/22 05:10:02;;;;;;;8.30;4.00;;;16.50;99.90;;;;;;4921075;28;20044;-71
2023/08/22 05:12:27;;;;;;;16.35;4.80;;;16.50;99.90;;;;;;4921652;28;20036;-69
2023/08/22 05:14:53;;;;;;;9.48;4.15;;;16.50;99.90;;;;;;4915553;28;20533;-71
2023/08/22 05:17:18;;;;;;;10.27;3.60;;;16.50;99.90;;;;;;4920837;28;20326;-69
2023/08/22 05:19:44;;;;;;;8.95;3.65;;;16.50;99.90;;;;;;4911768;28;20488;-71
2023/08/22 05:22:10;;;;;;;14.93;4.18;;;16.50;99.90;;;;;;4923690;28;20039;-72
2023/08/22 05:24:36;;;;;;;8.52;3.72;;;16.50;99.90;;;;;;4912763;28;20487;-71
2023/08/22 05:27:01;;;;;;;10.23;3.60;;;16.50;99.90;;;;;;4918393;28;20089;-69
2023/08/22 05:29:27;;;;;;;7.85;3.13;;;16.50;99.90;;;;;;4915065;28;20118;-71
2023/08/22 05:31:53;;;;;;;10.25;4.20;;;16.50;99.90;;;;;;4918296;28;20075;-72
2023/08/22 05:34:19;;;;;;;11.90;4.07;;;16.60;99.90;;;;;;4916431;28;20055;-70
2023/08/22 05:36:44;;;;;;;8.73;4.22;;;16.60;99.90;;;;;;4919239;28;20040;-70
2023/08/22 05:39:10;;;;;;;9.68;3.97;;;16.70;99.90;;;;;;4918451;28;20036;-70
2023/08/22 05:41:36;;;;;;;6.85;3.92;;;16.70;99.90;;;;;;4914538;28;20043;-71
2023/08/22 05:44:02;;;;;;;9.18;3.40;;;16.80;99.90;;;;;;4915258;28;20115;-70
2023/08/22 05:46:27;;;;;;;9.05;3.75;;;16.80;99.90;;;;;;4916688;28;20059;-72
2023/08/22 05:48:53;;;;;;;10.73;4.28;;;16.90;99.90;;;;;;4922481;28;20392;-70
2023/08/22 05:51:19;;;;;;;8.40;3.38;;;16.90;99.90;;;;;;4917398;28;20059;-72
2023/08/22 05:53:44;;;;;;;9.15;4.07;;;16.90;99.90;;;;;;4920147;28;20033;-68
2023/08/22 05:56:10;;;;;;;9.02;3.50;;;17.00;99.90;;;;;;4918475;28;20107;-71
2023/08/22 05:58:35;;;;;;;8.32;3.78;;;17.00;99.90;;;;;;4912174;28;20566;-70
2023/08/22 06:01:11;;;;;;;9.88;3.13;;;17.10;99.90;;;;;;4915261;28;20027;-69
2023/08/22 06:03:38;;;;;;;9.82;3.60;;;17.10;99.90;;;;;;4915646;28;20054;-69
2023/08/22 06:06:04;;;;;;;6.72;3.63;;;17.20;99.90;;;;;;4915494;28;20028;-71
2023/08/22 06:08:29;;;;;;;8.45;3.67;;;17.20;99.90;;;;;;4925436;28;20035;-71
2023/08/22 06:10:55;;;;;;;9.10;3.53;;;17.20;99.90;;;;;;4920993;28;20046;-69
2023/08/22 06:13:21;;;;;;;7.85;3.40;;;17.30;99.90;;;;;;4913198;28;20135;-71
2023/08/22 06:15:46;;;;;;;6.95;3.60;;;17.30;99.90;;;;;;4913414;28;20033;-70
2023/08/22 06:18:12;;;;;;;7.78;3.70;;;17.40;99.90;;;;;;4917081;28;20044;-69
2023/08/22 06:20:41;;;;;;;6.40;3.17;;;17.60;99.90;;;;;;4917880;28;20046;-69
2023/08/22 06:23:06;;;;;;;7.10;3.50;;;17.90;99.90;;;;;;4916046;28;20087;-71
2023/08/22 06:25:33;;;;;;;7.68;2.90;;;18.10;99.90;;;;;;4914226;28;20040;-70
2023/08/22 06:27:58;;;;;;;6.80;2.88;;;18.40;99.90;;;;;;4916720;28;20066;-70
2023/08/22 06:30:24;;;;;;;6.50;2.47;;;18.80;99.90;;;;;;4913172;28;20040;-70
2023/08/22 06:32:49;;;;;;;5.50;2.45;;;19.10;99.90;;;;;;4912812;28;20043;-70
2023/08/22 06:35:15;;;;;;;8.00;2.60;;;19.40;99.90;;;;;;4915734;28;20036;-69
2023/08/22 06:37:41;;;;;;;7.70;2.35;;;19.70;99.90;;;;;;4912243;28;20066;-69
2023/08/22 06:40:07;;;;;;;6.47;2.75;;;20.00;99.90;;;;;;4913851;28;20078;-70
2023/08/22 06:42:32;;;;;;;6.22;2.67;;;20.60;99.90;;;;;;4911840;28;20046;-69
2023/08/22 06:44:58;;;;;;;12.00;3.00;;;21.40;99.90;;;;;;4918073;28;20119;-71
2023/08/22 06:47:24;;;;;;;4.82;2.50;;;22.30;99.90;;;;;;4917011;28;20055;-70
2023/08/22 06:49:49;;;;;;;6.50;2.38;;;22.90;99.90;;;;;;4916638;28;20047;-71
2023/08/22 06:52:15;;;;;;;4.40;2.42;;;23.60;99.90;;;;;;4912521;28;20040;-70
2023/08/22 06:54:41;;;;;;;4.97;2.55;;;24.60;99.90;;;;;;4910536;28;20036;-70
2023/08/22 06:57:07;;;;;;;4.57;2.60;;;25.70;99.90;;;;;;4915945;28;20036;-70
2023/08/22 06:59:33;;;;;;;3.85;2.65;;;26.50;99.90;;;;;;4914260;28;20557;-70
2023/08/22 07:01:58;;;;;;;9.48;3.10;;;27.10;99.90;;;;;;4914812;28;20040;-70
2023/08/22 07:04:24;;;;;;;6.90;2.92;;;27.50;99.90;;;;;;4919090;28;20039;-72
2023/08/22 07:06:50;;;;;;;5.93;3.03;;;27.30;99.90;;;;;;4920553;28;20122;-71
2023/08/22 07:09:16;;;;;;;5.25;3.10;;;27.10;99.90;;;;;;4914703;28;20067;-70
2023/08/22 07:11:42;;;;;;;5.05;2.95;;;27.00;99.90;;;;;;4919096;28;20546;-70
2023/08/22 07:14:08;;;;;;;22.17;3.40;;;26.60;99.90;;;;;;4913877;28;20218;-70
2023/08/22 07:16:33;;;;;;;6.70;3.10;;;25.80;99.90;;;;;;4921200;28;20549;-69
2023/08/22 07:18:59;;;;;;;8.20;2.80;;;25.10;99.90;;;;;;4916128;28;20039;-69
2023/08/22 07:21:25;;;;;;;6.18;2.40;;;24.50;99.90;;;;;;4923453;28;20089;-70
2023/08/22 07:23:51;;;;;;;5.35;2.55;;;23.90;99.90;;;;;;4915035;28;20028;-70
2023/08/22 07:26:16;;;;;;;9.52;2.67;;;23.50;99.90;;;;;;4913279;28;20462;-70
2023/08/22 07:28:42;;;;;;;6.05;2.22;;;23.10;99.90;;;;;;4921108;28;20048;-71
2023/08/22 07:31:08;;;;;;;5.00;1.65;;;22.80;99.90;;;;;;4914033;28;20028;-71
2023/08/22 07:33:33;;;;;;;4.97;1.70;;;22.60;99.90;;;;;;4909748;28;20053;-70
2023/08/22 07:36:00;;;;;;;5.70;2.30;;;22.40;99.90;;;;;;4908603;29;20040;-71
2023/08/22 07:38:26;;;;;;;6.47;2.30;;;22.20;99.90;;;;;;4919470;28;20101;-70
2023/08/22 07:40:51;;;;;;;6.93;1.73;;;22.00;99.90;;;;;;4916943;28;20049;-71
2023/08/22 07:43:17;;;;;;;4.15;1.63;;;21.90;99.90;;;;;;4913252;29;20028;-70
2023/08/22 07:45:42;;;;;;;7.07;1.65;;;21.80;99.90;;;;;;4912467;28;20032;-72
2023/08/22 07:48:09;;;;;;;8.25;2.38;;;21.80;99.90;;;;;;4904554;28;20028;-70
2023/08/22 07:50:35;;;;;;;3.63;1.65;;;21.70;99.90;;;;;;4917274;28;20147;-70
2023/08/22 07:53:00;;;;;;;4.55;2.20;;;21.60;99.90;;;;;;4921078;28;20064;-70
2023/08/22 07:55:26;;;;;;;8.32;2.10;;;21.60;99.90;;;;;;4912496;28;20097;-70
2023/08/22 07:57:52;;;;;;;6.40;2.42;;;21.50;99.90;;;;;;4910062;28;20779;-72
2023/08/22 08:00:18;;;;;;;8.63;2.55;;;21.40;99.90;;;;;;4918278;28;20131;-72
2023/08/22 08:02:45;;;;;;;6.70;2.00;;;21.40;99.90;;;;;;4921382;28;20476;-71
2023/08/22 08:05:12;;;;;;;8.57;2.35;;;21.30;99.90;;;;;;4910316;28;20175;-69
2023/08/22 08:07:38;;;;;;;7.38;2.05;;;21.30;99.90;;;;;;4915290;28;20582;-71
2023/08/22 08:10:04;;;;;;;4.40;1.88;;;21.30;99.90;;;;;;4917464;28;20154;-70
2023/08/22 08:12:29;;;;;;;7.43;2.50;;;21.40;99.90;;;;;;4910695;28;20036;-70
2023/08/22 08:14:55;;;;;;;7.55;2.55;;;21.40;99.90;;;;;;4917029;28;20110;-70
2023/08/22 08:17:21;;;;;;;4.95;2.22;;;21.40;99.90;;;;;;4916413;28;20035;-70
2023/08/22 08:19:47;;;;;;;6.55;2.08;;;21.40;99.90;;;;;;4920347;28;20044;-69
2023/08/22 08:22:13;;;;;;;6.53;1.60;;;21.40;99.90;;;;;;4912390;28;20040;-70
2023/08/22 08:24:38;;;;;;;4.68;1.70;;;21.40;99.90;;;;;;4916000;28;20059;-70
2023/08/22 08:27:05;;;;;;;8.15;2.22;;;21.50;99.90;;;;;;4917006;28;20456;-71
2023/08/22 08:29:31;;;;;;;4.97;1.92;;;21.60;99.90;;;;;;4919057;28;20036;-70
2023/08/22 08:31:57;;;;;;;4.93;1.85;;;21.80;99.90;;;;;;4919433;28;20439;-71
2023/08/22 08:34:23;;;;;;;4.15;1.65;;;22.00;99.90;;;;;;4913417;28;20079;-74
2023/08/22 08:36:50;;;;;;;4.72;2.05;;;22.10;99.90;;;;;;4917802;29;20052;-71
2023/08/22 08:39:15;;;;;;;5.55;2.45;;;22.20;99.90;;;;;;4918771;28;20495;-72
2023/08/22 08:42:22;;;;;;;5.15;1.80;;;22.20;99.90;;;;;;4914820;28;20056;-71
2023/08/22 08:44:48;;;;;;;9.40;3.10;;;22.20;99.90;;;;;;4857282;29;20045;-70
2023/08/22 08:47:14;;;;;;;4.68;1.80;;;22.20;99.90;;;;;;4911859;28;20043;-72
2023/08/22 08:49:41;;;;;;;4.40;1.60;;;22.30;99.90;;;;;;4918671;28;20048;-70
2023/08/22 08:52:08;;;;;;;8.10;2.50;;;22.30;99.90;;;;;;4921109;28;20063;-71
2023/08/22 08:54:36;;;;;;;4.43;1.65;;;22.40;99.90;;;;;;4913060;28;20035;-70
2023/08/22 08:57:03;;;;;;;4.38;1.58;;;22.50;99.90;;;;;;4920029;28;20036;-70
2023/08/22 08:59:29;;;;;;;6.45;2.10;;;22.60;99.90;;;;;;4917239;28;20059;-69
2023/08/22 09:01:56;;;;;;;6.38;1.95;;;22.80;99.90;;;;;;4922296;28;20391;-70
2023/08/22 09:04:22;;;;;;;14.05;2.75;;;22.80;99.90;;;;;;4916560;28;20404;-70
2023/08/22 09:06:48;;;;;;;6.72;2.20;;;22.90;99.90;;;;;;4921708;28;20032;-71
2023/08/22 09:11:52;;;;;;;5.15;1.98;;;23.10;99.90;;;;;;5103718;23;20046;-71
2023/08/22 09:14:19;;;;;;;7.22;2.30;;;23.20;99.90;;;;;;5025235;28;20041;-72
2023/08/22 09:16:45;;;;;;;5.38;1.90;;;23.30;99.90;;;;;;5026776;28;20476;-71
2023/08/22 09:19:12;;;;;;;19.83;2.33;;;23.30;99.90;;;;;;5020825;28;20025;-71
2023/08/22 09:21:37;;;;;;;9.30;2.70;;;23.50;99.90;;;;;;5031103;28;20047;-72
2023/08/22 09:24:10;;;;;;;3.67;1.52;;;23.50;99.90;;;;;;5027157;28;20029;-72
2023/08/22 09:26:37;;;;;;;8.50;2.40;;;23.50;99.90;;;;;;5029375;28;20034;-72
2023/08/22 09:29:06;;;;;;;9.25;2.28;;;23.50;99.90;;;;;;5034067;28;20040;-71
2023/08/22 09:31:34;;;;;;;7.80;2.10;;;23.50;99.90;;;;;;5025781;28;20021;-71
2023/08/22 09:34:13;;;;;;;7.35;1.98;;;23.50;99.90;;;;;;5027645;28;20033;-71
2023/08/22 09:36:45;;;;;;;4.13;1.63;;;23.50;99.90;;;;;;5028492;28;20075;-72
2023/08/22 09:39:16;;;;;;;6.43;1.65;;;23.40;99.90;;;;;;5030143;28;20095;-72
2023/08/22 09:41:42;;;;;;;4.97;1.83;;;23.30;99.90;;;;;;5025633;28;20033;-70
2023/08/22 09:44:11;;;;;;;5.65;1.75;;;23.20;99.90;;;;;;5022773;28;20048;-71
2023/08/22 09:46:42;;;;;;;7.32;1.83;;;23.20;99.90;;;;;;5022900;28;20041;-72
2023/08/22 09:49:13;;;;;;;9.88;1.95;;;23.20;99.90;;;;;;5026028;28;20550;-72
2023/08/22 09:51:40;;;;;;;4.55;2.17;;;23.30;99.90;;;;;;5024193;28;20029;-71
2023/08/22 09:54:06;;;;;;;8.98;2.42;;;23.20;99.90;;;;;;5030986;28;20036;-71
2023/08/22 09:56:33;;;;;;;6.18;2.47;;;23.20;99.90;;;;;;5025315;28;20384;-71
2023/08/22 09:59:02;;;;;;;7.55;2.10;;;23.10;99.90;;;;;;5020491;28;20025;-71
2023/08/22 10:01:29;;;;;;;11.43;2.60;;;23.20;99.90;;;;;;5020443;28;20025;-71
2023/08/22 10:03:56;;;;;;;10.70;3.25;;;23.20;99.90;;;;;;5032661;28;20108;-71
2023/08/22 10:06:30;;;;;;;7.25;2.55;;;23.30;99.90;;;;;;5025761;28;20029;-71
2023/08/22 10:08:57;;;;;;;6.28;2.85;;;23.30;99.90;;;;;;5021100;28;20519;-71
2023/08/22 10:11:25;;;;;;;7.05;2.10;;;23.30;99.90;;;;;;5024991;28;20405;-74
2023/08/22 10:13:52;;;;;;;11.93;3.05;;;23.40;99.90;;;;;;5025758;28;20033;-70
2023/08/22 10:16:18;;;;;;;5.55;2.17;;;23.40;99.90;;;;;;5021679;28;20033;-72
2023/08/22 10:18:44;;;;;;;6.95;2.13;;;23.50;99.90;;;;;;5025525;28;20486;-72
2023/08/22 10:21:10;;;;;;;5.10;2.28;;;23.60;99.90;;;;;;5036716;28;20089;-71
2023/08/22 10:23:55;;;;;;;8.32;2.88;;;23.70;99.90;;;;;;5024070;28;20037;-72
2023/08/22 10:26:22;;;;;;;9.25;2.88;;;23.60;99.90;;;;;;5023941;28;20083;-72
2023/08/22 10:29:19;;;;;;;7.03;2.63;;;23.50;99.90;;;;;;5029537;28;20038;-71
2023/08/22 10:32:07;;;;;;;6.97;2.30;;;23.50;99.90;;;;;;5029834;28;20048;-71
2023/08/22 10:34:39;;;;;;;5.05;2.13;;;23.50;99.90;;;;;;5024062;28;20030;-73
2023/08/22 10:37:14;;;;;;;13.38;2.85;;;23.50;99.90;;;;;;5026539;28;20558;-71
2023/08/22 10:39:42;;;;;;;6.68;2.22;;;23.50;99.90;;;;;;5024919;28;20056;-72
2023/08/22 10:42:13;;;;;;;6.93;2.65;;;23.50;99.90;;;;;;5026469;28;20699;-71
2023/08/22 10:44:39;;;;;;;3.78;1.83;;;23.50;99.90;;;;;;5045285;28;20099;-71
2023/08/22 10:47:22;;;;;;;5.47;2.38;;;23.70;99.90;;;;;;5024304;28;20028;-70
2023/08/22 10:49:52;;;;;;;8.77;1.98;;;23.90;99.90;;;;;;5028119;28;20045;-71
2023/08/22 10:52:23;;;;;;;;;;;23.90;99.90;;;;;;5022786;28;20034;-72
2023/08/22 10:55:11;;;;;;;6.30;2.30;;;23.90;99.90;;;;;;5023267;28;19921;-70
2023/08/22 10:57:46;;;;;;;4.47;1.83;;;23.90;99.90;;;;;;5018725;28;20041;-71
2023/08/22 11:00:18;;;;;;;7.05;2.00;;;23.90;99.90;;;;;;5027824;28;20044;-71
2023/08/22 11:02:44;;;;;;;6.47;2.15;;;23.90;99.90;;;;;;5029129;28;20037;-72
2023/08/22 11:05:12;;;;;;;4.20;2.00;;;24.00;99.90;;;;;;5024006;28;20038;-73
2023/08/22 11:07:40;;;;;;;5.32;2.00;;;24.10;99.90;;;;;;5028515;28;20049;-72
2023/08/22 11:10:13;;;;;;;7.60;2.50;;;24.10;99.90;;;;;;5031173;28;20052;-71
2023/08/22 11:12:40;;;;;;;11.10;2.47;;;24.10;99.90;;;;;;5022163;28;20485;-70
2023/08/22 11:15:06;;;;;;;7.68;3.00;;;24.00;99.90;;;;;;5024234;28;20032;-71
2023/08/22 11:17:32;;;;;;;6.53;1.85;;;23.80;99.90;;;;;;5024342;28;20124;-71
2023/08/22 11:19:58;;;;;;;5.00;1.80;;;23.70;99.90;;;;;;5028512;28;20501;-70
2023/08/22 11:22:24;;;;;;;5.30;2.00;;;23.70;99.90;;;;;;5023884;28;20228;-70
2023/08/22 11:24:51;;;;;;;6.13;1.60;;;23.60;99.90;;;;;;5030493;28;20042;-70
2023/08/22 11:27:17;;;;;;;2.55;1.20;;;23.70;99.90;;;;;;5029095;28;20040;-70
2023/08/22 11:29:51;;;;;;;3.17;0.98;;;23.80;99.90;;;;;;5021494;28;20094;-72
2023/08/22 11:32:25;;;;;;;3.30;1.13;;;24.00;99.90;;;;;;5043289;28;20061;-72
2023/08/22 11:34:55;;;;;;;4.22;0.73;;;24.00;99.90;;;;;;5029450;28;20033;-72
2023/08/22 11:37:21;;;;;;;2.60;0.60;;;24.00;99.90;;;;;;5024747;28;20064;-71
2023/08/22 11:39:49;;;;;;;7.38;1.05;;;24.00;99.90;;;;;;5028022;28;20049;-71
2023/08/22 11:42:15;;;;;;;2.42;0.63;;;24.00;99.90;;;;;;5025068;28;20428;-70
2023/08/22 11:45:05;;;;;;;4.07;1.20;;;24.00;99.90;;;;;;5030206;28;20122;-71
2023/08/22 11:47:47;;;;;;;3.50;0.60;;;24.00;99.90;;;;;;5020835;28;20037;-71
2023/08/22 11:50:27;;;;;;;3.60;0.65;;;24.10;99.90;;;;;;5022303;28;20030;-71
2023/08/22 11:52:54;;;;;;;3.93;0.83;;;24.00;99.90;;;;;;5025542;28;20037;-71
2023/08/22 11:55:26;;;;;;;3.78;0.70;;;24.00;99.90;;;;;;5031470;28;20439;-71
2023/08/22 11:57:59;;;;;;;3.80;0.95;;;24.10;99.90;;;;;;5026515;28;20057;-71
2023/08/22 12:00:30;;;;;;;4.65;0.88;;;24.10;99.90;;;;;;5029208;28;20404;-71
2023/08/22 12:02:57;;;;;;;4.00;0.80;;;24.20;99.90;;;;;;5027400;28;20398;-71
2023/08/22 12:05:32;;;;;;;4.68;0.73;;;24.20;99.90;;;;;;5029078;28;20033;-72
2023/08/22 12:07:59;;;;;;;4.57;1.17;;;24.20;99.90;;;;;;5029759;28;20583;-71
2023/08/22 12:10:25;;;;;;;2.58;0.80;;;24.10;99.90;;;;;;5025698;28;20048;-72
2023/08/22 12:12:50;;;;;;;3.78;0.60;;;24.10;99.90;;;;;;5034260;28;20041;-71
2023/08/22 12:15:16;;;;;;;4.28;0.98;;;24.00;99.90;;;;;;5029860;28;20085;-71
2023/08/22 12:17:41;;;;;;;4.75;0.70;;;23.90;99.90;;;;;;5022556;28;20125;-71
2023/08/22 12:20:07;;;;;;;2.65;0.73;;;23.80;99.90;;;;;;5026937;28;20124;-71
2023/08/22 12:22:33;;;;;;;4.03;1.08;;;23.70;99.90;;;;;;5027492;28;20037;-70
2023/08/22 12:24:58;;;;;;;1.52;0.77;;;23.80;99.90;;;;;;5032466;28;20033;-71
2023/08/22 12:27:27;;;;;;;2.63;0.70;;;23.80;99.90;;;;;;5030959;28;20045;-71
2023/08/22 12:29:53;;;;;;;3.58;0.47;;;23.80;99.90;;;;;;5032034;28;20037;-71
2023/08/22 12:32:19;;;;;;;3.72;0.93;;;23.80;99.90;;;;;;5029810;28;20052;-71
2023/08/22 12:34:45;;;;;;;1.60;0.70;;;23.70;99.90;;;;;;5032157;28;20093;-71
2023/08/22 12:37:10;;;;;;;1.92;0.50;;;23.60;99.90;;;;;;5029810;28;20037;-72
2023/08/22 12:39:36;;;;;;;6.25;0.80;;;23.50;99.90;;;;;;5029013;28;20029;-71
2023/08/22 12:42:02;;;;;;;4.85;1.27;;;23.40;99.90;;;;;;5025117;28;20120;-71
2023/08/22 12:44:28;;;;;;;4.95;1.00;;;23.30;99.90;;;;;;5030925;28;20494;-71
2023/08/22 12:46:56;;;;;;;6.60;0.93;;;23.30;99.90;;;;;;5026198;28;20260;-71
2023/08/22 12:49:22;;;;;;;5.00;1.35;;;23.20;99.90;;;;;;5033637;28;20045;-72